createdAt,value
2019-06-07T00:02:06.415Z,100760.43
2019-06-07T00:04:38.483Z,100760.59
2019-06-07T00:07:12.581Z,100765.31
2019-06-07T00:09:44.459Z,100763.05
2019-06-07T00:12:17.604Z,100760.66
2019-06-07T00:14:50.239Z,100767.94
2019-06-07T00:17:22.676Z,100757.73
2019-06-07T00:19:54.685Z,100757.88
2019-06-07T00:22:33.114Z,100756.38
2019-06-07T00:25:00.884Z,100763.88
2019-06-07T00:27:32.940Z,100758.48
2019-06-07T00:30:32.765Z,100755.39
2019-06-07T00:32:40.765Z,100756.45
2019-06-07T00:35:15.450Z,100758.53
2019-06-07T00:37:46.642Z,100757.34
2019-06-07T00:40:29.977Z,100753.21
2019-06-07T00:42:52.416Z,100748.73
2019-06-07T00:45:24.897Z,100753.45
2019-06-07T00:47:56.989Z,100747.23
2019-06-07T00:50:29.233Z,100748.30
2019-06-07T00:53:21.625Z,100752.31
2019-06-07T00:55:35.566Z,100746.96
2019-06-07T00:58:07.587Z,100751.12
2019-06-07T01:00:39.545Z,100748.50
2019-06-07T01:03:12.712Z,100754.05
2019-06-07T01:05:45.527Z,100750.91
2019-06-07T01:08:21.516Z,100750.59
2019-06-07T01:10:53.935Z,100745.23
2019-06-07T01:13:26.970Z,100739.00
2019-06-07T01:15:59.025Z,100738.13
2019-06-07T01:18:39.049Z,100729.30
2019-06-07T01:21:05.207Z,100732.63
2019-06-07T01:26:11.028Z,100730.41
2019-06-07T01:28:43.328Z,100739.41
2019-06-07T01:31:17.715Z,100740.46
2019-06-07T01:33:51.156Z,100742.53
2019-06-07T01:36:25.243Z,100748.95
2019-06-07T01:38:56.756Z,100757.07
2019-06-07T01:41:30.677Z,100755.51
2019-06-07T01:44:02.633Z,100761.89
2019-06-07T01:46:35.004Z,100757.00
2019-06-07T01:49:07.235Z,100761.70
2019-06-07T01:51:39.441Z,100761.70
2019-06-07T01:54:49.664Z,100766.91
2019-06-07T01:56:46.861Z,100771.22
2019-06-07T01:59:21.974Z,100766.55
2019-06-07T02:01:52.540Z,100763.75
2019-06-07T02:04:27.343Z,100774.31
2019-06-07T02:06:58.059Z,100771.36
2019-06-07T02:09:32.018Z,100774.13
2019-06-07T02:12:24.771Z,100775.88
2019-06-07T02:14:37.587Z,100771.72
2019-06-07T02:17:09.860Z,100766.17
2019-06-07T02:19:41.822Z,100764.09
2019-06-07T02:22:14.229Z,100764.78
2019-06-07T02:24:46.682Z,100778.09
2019-06-07T02:27:20.458Z,100778.08
2019-06-07T02:29:52.663Z,100780.66
2019-06-07T02:32:29.818Z,100779.41
2019-06-07T02:34:59.051Z,100780.41
2019-06-07T02:37:34.109Z,100788.47
2019-06-07T02:40:08.018Z,100782.31
2019-06-07T02:42:42.595Z,100782.63
2019-06-07T02:45:13.681Z,100786.33
2019-06-07T02:47:47.197Z,100783.34
2019-06-07T02:50:19.303Z,100787.67
2019-06-07T02:52:51.136Z,100780.00
2019-06-07T02:55:27.382Z,100778.75
2019-06-07T02:57:56.273Z,100776.79
2019-06-07T03:01:08.959Z,100771.30
2019-06-07T03:03:22.700Z,100775.35
2019-06-07T03:05:54.704Z,100778.66
2019-06-07T03:08:28.259Z,100776.03
2019-06-07T03:11:00.078Z,100778.98
2019-06-07T03:13:37.746Z,100782.32
2019-06-07T03:16:12.399Z,100779.55
2019-06-07T03:18:58.289Z,100782.20
2019-06-07T03:21:33.718Z,100780.20
2019-06-07T03:24:04.772Z,100775.75
2019-06-07T03:27:30.352Z,100779.63
2019-06-07T03:29:10.051Z,100784.63
2019-06-07T03:31:47.778Z,100789.20
2019-06-07T03:34:15.933Z,100781.78
2019-06-07T03:36:48.205Z,100780.47
2019-06-07T03:39:20.272Z,100774.56
2019-06-07T03:42:05.812Z,100773.89
2019-06-07T03:44:28.640Z,100773.31
2019-06-07T03:46:59.858Z,100776.41
2019-06-07T03:49:37.561Z,100783.66
2019-06-07T03:52:05.424Z,100784.38
2019-06-07T03:54:39.779Z,100787.58
2019-06-07T03:57:11.206Z,100787.55
2019-06-07T03:59:43.581Z,100786.50
2019-06-07T04:02:15.951Z,100786.27
2019-06-07T04:04:47.915Z,100785.27
2019-06-07T04:07:20.089Z,100793.16
2019-06-07T04:09:52.465Z,100789.02
2019-06-07T04:12:24.429Z,100786.93
2019-06-07T04:14:56.503Z,100788.60
2019-06-07T04:17:32.059Z,100788.73
2019-06-07T04:20:03.044Z,100782.30
2019-06-07T04:22:37.575Z,100787.31
2019-06-07T04:25:09.455Z,100788.95
2019-06-07T04:27:41.563Z,100790.97
2019-06-07T04:30:13.517Z,100782.89
2019-06-07T04:32:45.375Z,100785.61
2019-06-07T04:35:17.545Z,100790.87
2019-06-07T04:37:49.413Z,100791.42
2019-06-07T04:40:21.574Z,100789.22
2019-06-07T04:42:53.640Z,100785.77
2019-06-07T04:45:40.266Z,100793.39
2019-06-07T04:47:59.853Z,100790.24
2019-06-07T04:50:35.356Z,100788.29
2019-06-07T04:53:07.138Z,100790.06
2019-06-07T04:55:41.608Z,100789.11
2019-06-07T04:58:13.013Z,100800.91
2019-06-07T05:00:52.768Z,100799.34
2019-06-07T05:03:19.096Z,100799.72
2019-06-07T05:05:51.366Z,100792.31
2019-06-07T05:08:28.480Z,100790.53
2019-06-07T05:10:57.653Z,100789.80
2019-06-07T05:13:31.507Z,100781.89
2019-06-07T05:16:03.530Z,100781.95
2019-06-07T05:18:39.700Z,100786.57
2019-06-07T05:21:09.513Z,100787.09
2019-06-07T05:24:05.603Z,100787.09
2019-06-07T05:26:15.081Z,100787.53
2019-06-07T05:28:47.053Z,100787.66
2019-06-07T05:31:19.218Z,100786.37
2019-06-07T05:33:51.189Z,100794.11
2019-06-07T05:36:23.560Z,100786.91
2019-06-07T05:38:55.627Z,100791.97
2019-06-07T05:41:27.698Z,100789.69
2019-06-07T05:44:12.233Z,100786.24
2019-06-07T05:46:38.633Z,100784.63
2019-06-07T05:49:08.307Z,100786.05
2019-06-07T05:51:44.395Z,100790.31
2019-06-07T05:54:13.983Z,100797.20
2019-06-07T05:56:46.144Z,100793.44
2019-06-07T05:59:18.325Z,100797.44
2019-06-07T06:02:01.946Z,100806.37
2019-06-07T06:04:23.781Z,100811.83
2019-06-07T06:06:55.745Z,100806.45
2019-06-07T06:09:28.121Z,100815.50
2019-06-07T06:12:02.426Z,100818.19
2019-06-07T06:14:35.379Z,100812.39
2019-06-07T06:17:07.086Z,100811.88
2019-06-07T06:19:40.665Z,100803.48
2019-06-07T06:22:13.161Z,100806.48
2019-06-07T06:25:17.692Z,100813.37
2019-06-07T06:28:02.703Z,100812.45
2019-06-07T06:29:52.576Z,100806.97
2019-06-07T06:32:41.600Z,100818.36
2019-06-07T06:34:58.314Z,100814.41
2019-06-07T06:37:32.977Z,100814.81
2019-06-07T06:40:06.273Z,100809.97
2019-06-07T06:42:39.635Z,100822.84
2019-06-07T06:45:11.816Z,100810.38
2019-06-07T06:47:47.199Z,100814.62
2019-06-07T06:50:17.273Z,100810.97
2019-06-07T06:52:54.220Z,100808.55
2019-06-07T06:55:23.144Z,100807.28
2019-06-07T06:57:55.524Z,100813.80
2019-06-07T07:00:50.346Z,100816.33
2019-06-07T07:03:56.426Z,100815.19
2019-06-07T07:05:53.316Z,100820.48
2019-06-07T07:08:23.554Z,100820.48
2019-06-07T07:10:55.855Z,100823.39
2019-06-07T07:13:28.093Z,100823.83
2019-06-07T07:16:00.362Z,100831.25
2019-06-07T07:18:33.008Z,100822.12
2019-06-07T07:21:05.723Z,100825.50
2019-06-07T07:23:38.230Z,100835.94
2019-06-07T07:26:10.597Z,100833.13
2019-06-07T07:28:45.391Z,100824.84
2019-06-07T07:31:17.970Z,100824.30
2019-06-07T07:36:38.926Z,100845.31
2019-06-07T07:39:04.502Z,100838.97
2019-06-07T07:41:30.546Z,100833.11
2019-06-07T07:44:07.145Z,100834.08
2019-06-07T07:46:36.417Z,100827.84
2019-06-07T07:49:08.484Z,100823.53
2019-06-07T07:51:40.652Z,100816.73
2019-06-07T07:54:12.874Z,100817.75
2019-06-07T07:56:45.747Z,100822.63
2019-06-07T07:59:18.799Z,100826.46
2019-06-07T08:01:53.096Z,100823.60
2019-06-07T08:05:12.353Z,100824.94
2019-06-07T08:06:59.189Z,100819.23
2019-06-07T08:09:31.267Z,100824.32
2019-06-07T08:12:03.428Z,100820.84
2019-06-07T08:14:35.726Z,100830.58
2019-06-07T08:17:07.767Z,100825.02
2019-06-07T08:19:39.744Z,100824.64
2019-06-07T08:22:12.009Z,100815.97
2019-06-07T08:24:44.399Z,100830.08
2019-06-07T08:27:26.072Z,100824.24
2019-06-07T08:30:10.189Z,100816.83
2019-06-07T08:32:28.067Z,100825.66
2019-06-07T08:35:06.057Z,100825.08
2019-06-07T08:38:14.280Z,100834.03
2019-06-07T08:40:08.040Z,100826.41
2019-06-07T08:42:59.909Z,100809.80
2019-06-07T08:45:14.532Z,100829.14
2019-06-07T08:47:46.813Z,100810.86
2019-06-07T08:50:20.570Z,100814.41
2019-06-07T08:52:56.325Z,100806.33
2019-06-07T08:55:26.285Z,100804.48
2019-06-07T08:58:04.193Z,100798.33
2019-06-07T09:00:48.111Z,100797.61
2019-06-07T09:03:07.420Z,100799.98
2019-06-07T09:05:39.586Z,100790.55
2019-06-07T09:08:29.207Z,100781.27
2019-06-07T09:10:45.351Z,100786.89
2019-06-07T09:13:17.421Z,100789.34
2019-06-07T09:15:49.276Z,100789.37
2019-06-07T09:18:40.856Z,100789.15
2019-06-07T09:20:55.641Z,100791.09
2019-06-07T09:23:28.488Z,100782.73
2019-06-07T09:26:15.340Z,100775.02
2019-06-07T09:28:34.644Z,100783.44
2019-06-07T09:31:10.391Z,100772.80
2019-06-07T09:33:40.412Z,100765.83
2019-06-07T09:36:13.344Z,100764.56
2019-06-07T09:38:45.682Z,100761.81
2019-06-07T09:41:17.851Z,100753.45
2019-06-07T09:44:21.392Z,100758.45
2019-06-07T09:46:24.044Z,100773.16
2019-06-07T09:49:26.338Z,100765.16
2019-06-07T09:51:29.405Z,100770.07
2019-06-07T09:54:06.874Z,100770.19
2019-06-07T09:56:35.183Z,100779.68
2019-06-07T09:59:12.307Z,100792.78
2019-06-07T10:01:40.550Z,100780.52
2019-06-07T10:04:28.550Z,100782.02
2019-06-07T10:06:48.425Z,100789.31
2019-06-07T10:11:58.089Z,100783.12
2019-06-07T10:14:30.423Z,100785.55
2019-06-07T10:17:03.291Z,100786.86
2019-06-07T10:19:35.588Z,100786.31
2019-06-07T10:22:07.888Z,100794.25
2019-06-07T10:24:39.837Z,100805.03
2019-06-07T10:27:11.592Z,100799.17
2019-06-07T10:29:43.860Z,100791.55
2019-06-07T10:32:15.927Z,100787.55
2019-06-07T10:34:47.796Z,100778.04
2019-06-07T10:37:19.769Z,100784.66
2019-06-07T10:39:51.933Z,100782.25
2019-06-07T10:42:24.623Z,100777.71
2019-06-07T10:44:57.197Z,100777.17
2019-06-07T10:47:28.958Z,100771.06
2019-06-07T10:50:03.785Z,100777.13
2019-06-07T10:52:36.730Z,100775.97
2019-06-07T10:55:08.679Z,100764.38
2019-06-07T10:57:42.455Z,100760.28
2019-06-07T11:00:14.519Z,100757.47
2019-06-07T11:02:46.387Z,100754.83
2019-06-07T11:05:19.292Z,100753.71
2019-06-07T11:07:51.715Z,100748.02
2019-06-07T11:10:23.721Z,100754.20
2019-06-07T11:12:55.994Z,100761.94
2019-06-07T11:15:28.171Z,100758.00
2019-06-07T11:18:00.448Z,100770.47
2019-06-07T11:20:32.403Z,100758.33
2019-06-07T11:23:04.270Z,100760.25
2019-06-07T11:25:36.233Z,100759.37
2019-06-07T11:28:08.609Z,100759.65
2019-06-07T11:30:40.467Z,100758.89
2019-06-07T11:33:14.830Z,100750.67
2019-06-07T11:35:46.853Z,100752.70
2019-06-07T11:38:20.044Z,100752.70
2019-06-07T11:40:53.979Z,100757.98
2019-06-07T11:43:26.734Z,100752.72
2019-06-07T11:45:58.902Z,100744.74
2019-06-07T11:48:31.640Z,100739.09
2019-06-07T11:51:06.549Z,100740.69
2019-06-07T11:53:38.482Z,100733.30
2019-06-07T11:56:11.853Z,100733.72
2019-06-07T11:58:43.830Z,100730.95
2019-06-07T12:01:17.136Z,100735.78
2019-06-07T12:03:49.601Z,100735.13
2019-06-07T12:06:21.775Z,100744.06
2019-06-07T12:08:54.506Z,100737.86
2019-06-07T12:11:26.523Z,100735.42
2019-06-07T12:13:58.798Z,100733.97
2019-06-07T12:16:30.762Z,100729.13
2019-06-07T12:19:03.491Z,100723.73
2019-06-07T12:21:35.809Z,100717.51
2019-06-07T12:24:07.619Z,100721.55
2019-06-07T12:26:39.853Z,100722.36
2019-06-07T12:29:12.786Z,100723.66
2019-06-07T12:31:44.703Z,100713.33
2019-06-07T12:34:17.594Z,100715.45
2019-06-07T12:36:49.757Z,100716.64
2019-06-07T12:39:22.263Z,100709.52
2019-06-07T12:41:54.613Z,100722.97
2019-06-07T12:44:26.943Z,100712.70
2019-06-07T12:46:59.379Z,100712.48
2019-06-07T12:49:31.635Z,100715.12
2019-06-07T12:52:03.489Z,100708.30
2019-06-07T12:54:35.464Z,100700.49
2019-06-07T12:57:07.741Z,100688.30
2019-06-07T12:59:40.110Z,100680.30
2019-06-07T13:02:12.379Z,100673.72
2019-06-07T13:04:44.551Z,100668.97
2019-06-07T13:07:21.966Z,100664.74
2019-06-07T13:09:54.123Z,100668.50
2019-06-07T13:12:26.391Z,100663.80
2019-06-07T13:14:58.671Z,100668.31
2019-06-07T13:17:30.839Z,100658.44
2019-06-07T13:20:02.638Z,100658.45
2019-06-07T13:22:35.004Z,100656.42
2019-06-07T13:25:06.931Z,100645.38
2019-06-07T13:27:38.900Z,100648.67
2019-06-07T13:30:12.298Z,100646.56
2019-06-07T13:32:44.261Z,100659.95
2019-06-07T13:35:18.169Z,100660.22
2019-06-07T13:37:51.174Z,100658.52
2019-06-07T13:40:25.123Z,100651.59
2019-06-07T13:42:57.665Z,100660.49
2019-06-07T13:45:29.832Z,100658.05
2019-06-07T13:48:02.311Z,100658.76
2019-06-07T13:50:34.394Z,100654.20
2019-06-07T13:53:06.760Z,100660.12
2019-06-07T13:55:39.131Z,100657.58
2019-06-07T13:58:10.993Z,100648.66
2019-06-07T14:00:44.499Z,100642.65
2019-06-07T14:03:20.308Z,100642.61
2019-06-07T14:05:50.191Z,100632.93
2019-06-07T14:08:23.378Z,100633.30
2019-06-07T14:10:55.566Z,100629.59
2019-06-07T14:13:28.156Z,100636.94
2019-06-07T14:16:00.378Z,100625.11
2019-06-07T14:18:32.445Z,100629.20
2019-06-07T14:21:04.817Z,100632.01
2019-06-07T14:23:48.367Z,100631.42
2019-06-07T14:26:10.180Z,100634.29
2019-06-07T14:28:42.252Z,100631.30
2019-06-07T14:31:14.219Z,100635.23
2019-06-07T14:33:47.115Z,100647.75
2019-06-07T14:36:20.913Z,100649.11
2019-06-07T14:38:53.129Z,100658.67
2019-06-07T14:41:25.269Z,100663.09
2019-06-07T14:43:59.520Z,100679.98
2019-06-07T14:46:32.263Z,100667.70
2019-06-07T14:49:05.146Z,100654.41
2019-06-07T14:51:37.322Z,100647.41
2019-06-07T14:54:09.487Z,100652.58
2019-06-07T14:56:41.552Z,100659.16
2019-06-07T14:59:15.585Z,100660.86
2019-06-07T15:01:48.685Z,100653.19
2019-06-07T15:04:26.540Z,100644.48
2019-06-07T15:07:00.265Z,100641.47
2019-06-07T15:09:33.068Z,100637.37
2019-06-07T15:12:05.212Z,100631.51
2019-06-07T15:14:37.615Z,100636.17
2019-06-07T15:17:09.732Z,100635.11
2019-06-07T15:19:41.714Z,100638.22
2019-06-07T15:22:13.475Z,100629.45
2019-06-07T15:24:45.652Z,100630.61
2019-06-07T15:27:18.038Z,100627.69
2019-06-07T15:29:49.988Z,100638.25
2019-06-07T15:32:22.358Z,100646.47
2019-06-07T15:34:54.550Z,100647.16
2019-06-07T15:37:26.489Z,100660.89
2019-06-07T15:39:58.660Z,100660.73
2019-06-07T15:42:42.948Z,100664.11
2019-06-07T15:45:07.333Z,100662.12
2019-06-07T15:47:40.617Z,100663.05
2019-06-07T15:50:12.868Z,100671.25
2019-06-07T15:52:45.290Z,100654.64
2019-06-07T15:55:18.542Z,100659.70
2019-06-07T15:57:51.797Z,100658.77
2019-06-07T16:00:24.807Z,100645.04
2019-06-07T16:02:57.560Z,100645.34
2019-06-07T16:05:31.869Z,100642.48
2019-06-07T16:08:04.636Z,100645.70
2019-06-07T16:10:38.936Z,100639.05
2019-06-07T16:13:12.793Z,100630.33
2019-06-07T16:15:45.047Z,100624.64
2019-06-07T16:18:17.355Z,100625.07
2019-06-07T16:20:49.211Z,100619.84
2019-06-07T16:23:21.799Z,100622.22
2019-06-07T16:25:53.750Z,100620.39
2019-06-07T16:28:25.912Z,100617.37
2019-06-07T16:30:58.087Z,100619.05
2019-06-07T16:33:30.788Z,100621.84
2019-06-07T16:36:05.076Z,100622.58
2019-06-07T16:38:40.167Z,100633.61
2019-06-07T16:41:15.783Z,100635.90
2019-06-07T16:43:52.892Z,100640.95
2019-06-07T16:46:29.971Z,100642.83
2019-06-07T16:49:05.749Z,100642.98
2019-06-07T16:51:41.313Z,100640.87
2019-06-07T16:54:15.085Z,100646.80
2019-06-07T16:56:51.222Z,100637.95
2019-06-07T16:59:24.018Z,100652.86
2019-06-07T17:01:56.846Z,100656.35
2019-06-07T17:04:28.803Z,100661.60
2019-06-07T17:07:00.976Z,100654.88
2019-06-07T17:09:33.961Z,100665.19
2019-06-07T17:12:06.339Z,100653.04
2019-06-07T17:14:38.427Z,100651.25
2019-06-07T17:17:10.743Z,100660.00
2019-06-07T17:19:42.897Z,100658.26
2019-06-07T17:22:15.308Z,100663.38
2019-06-07T17:24:47.655Z,100659.31
2019-06-07T17:27:19.755Z,100664.61
2019-06-07T17:29:52.012Z,100665.45
2019-06-07T17:32:24.386Z,100665.98
2019-06-07T17:34:56.558Z,100670.79
2019-06-07T17:37:30.219Z,100673.42
2019-06-07T17:40:02.413Z,100671.77
2019-06-07T17:42:35.107Z,100665.26
2019-06-07T17:45:08.997Z,100670.55
2019-06-07T17:47:41.806Z,100674.64
2019-06-07T17:50:14.372Z,100673.05
2019-06-07T17:52:47.941Z,100680.38
2019-06-07T17:55:20.136Z,100684.37
2019-06-07T17:57:52.693Z,100684.17
2019-06-07T18:00:28.797Z,100686.97
2019-06-07T18:03:00.330Z,100689.32
2019-06-07T18:05:32.390Z,100690.84
2019-06-07T18:08:07.220Z,100690.30
2019-06-07T18:10:41.129Z,100700.32
2019-06-07T18:13:12.905Z,100696.13
2019-06-07T18:15:51.644Z,100699.36
2019-06-07T18:18:20.999Z,100697.11
2019-06-07T18:20:55.653Z,100701.08
2019-06-07T18:23:27.186Z,100700.84
2019-06-07T18:26:00.676Z,100706.00
2019-06-07T18:28:35.036Z,100704.73
2019-06-07T18:31:06.870Z,100711.06
2019-06-07T18:33:39.604Z,100712.88
2019-06-07T18:36:11.920Z,100711.39
2019-06-07T18:38:44.190Z,100714.41
2019-06-07T18:41:16.458Z,100720.83
2019-06-07T18:43:49.170Z,100722.23
2019-06-07T18:46:21.312Z,100720.95
2019-06-07T18:48:54.817Z,100729.77
2019-06-07T18:51:28.829Z,100721.41
2019-06-07T18:54:03.261Z,100722.06
2019-06-07T18:56:39.206Z,100722.05
2019-06-07T18:59:14.725Z,100720.34
2019-06-07T19:01:49.989Z,100727.97
2019-06-07T19:04:23.781Z,100727.02
2019-06-07T19:06:56.410Z,100735.30
2019-06-07T19:09:28.557Z,100734.20
2019-06-07T19:12:00.683Z,100729.58
2019-06-07T19:14:37.085Z,100733.09
2019-06-07T19:17:07.074Z,100735.16
2019-06-07T19:19:39.292Z,100739.22
2019-06-07T19:22:11.816Z,100739.41
2019-06-07T19:24:45.083Z,100737.06
2019-06-07T19:27:17.279Z,100741.66
2019-06-07T19:29:50.783Z,100740.03
2019-06-07T19:32:23.199Z,100743.78
2019-06-07T19:34:55.322Z,100738.51
2019-06-07T19:37:27.826Z,100744.14
2019-06-07T19:40:00.274Z,100744.61
2019-06-07T19:42:32.680Z,100751.92
2019-06-07T19:45:28.843Z,100750.56
2019-06-07T19:47:40.345Z,100745.81
2019-06-07T19:50:12.506Z,100742.44
2019-06-07T19:52:44.469Z,100752.30
2019-06-07T19:55:16.963Z,100751.41
2019-06-07T19:57:50.187Z,100749.70
2019-06-07T20:00:22.201Z,100750.71
2019-06-07T20:02:55.741Z,100752.95
2019-06-07T20:05:27.665Z,100759.42
2019-06-07T20:08:00.604Z,100761.41
2019-06-07T20:10:32.710Z,100763.02
2019-06-07T20:13:05.350Z,100759.81
2019-06-07T20:15:37.469Z,100760.23
2019-06-07T20:18:09.956Z,100761.58
2019-06-07T20:20:42.129Z,100763.27
2019-06-07T20:23:14.563Z,100764.62
2019-06-07T20:25:46.570Z,100767.07
2019-06-07T20:28:18.756Z,100773.37
2019-06-07T20:30:52.284Z,100770.20
2019-06-07T20:33:24.226Z,100770.46
2019-06-07T20:35:56.672Z,100768.66
2019-06-07T20:38:28.669Z,100769.84
2019-06-07T20:41:01.153Z,100765.55
2019-06-07T20:43:34.708Z,100770.20
2019-06-07T20:46:08.180Z,100771.77
2019-06-07T20:48:40.305Z,100770.58
2019-06-07T20:51:12.165Z,100765.73
2019-06-07T20:53:44.536Z,100756.55
2019-06-07T20:56:17.114Z,100761.45
2019-06-07T20:58:49.489Z,100753.50
2019-06-07T21:01:21.864Z,100750.72
2019-06-07T21:03:54.354Z,100749.59
2019-06-07T21:06:26.310Z,100752.95
2019-06-07T21:08:59.340Z,100751.09
2019-06-07T21:11:31.368Z,100748.72
2019-06-07T21:14:06.135Z,100756.06
2019-06-07T21:16:38.470Z,100752.28
2019-06-07T21:19:14.414Z,100753.73
2019-06-07T21:21:48.880Z,100754.48
2019-06-07T21:24:22.040Z,100751.97
2019-06-07T21:26:57.224Z,100752.02
2019-06-07T21:29:31.396Z,100747.14
2019-06-07T21:32:03.806Z,100747.34
2019-06-07T21:34:36.025Z,100744.56
2019-06-07T21:37:09.996Z,100743.15
2019-06-07T21:39:42.337Z,100746.77
2019-06-07T21:42:14.268Z,100754.80
2019-06-07T21:44:46.634Z,100760.53
2019-06-07T21:47:19.156Z,100759.98
2019-06-07T21:49:51.235Z,100760.48
2019-06-07T21:52:26.449Z,100760.11
2019-06-07T21:54:58.888Z,100760.23
2019-06-07T21:57:31.177Z,100765.28
2019-06-07T22:00:11.488Z,100756.41
2019-06-07T22:02:47.683Z,100758.05
2019-06-07T22:05:19.734Z,100761.20
2019-06-07T22:07:51.905Z,100761.03
2019-06-07T22:10:24.171Z,100765.30
2019-06-07T22:12:55.930Z,100753.42
2019-06-07T22:15:34.050Z,100757.55
2019-06-07T22:18:01.598Z,100756.63
2019-06-07T22:20:33.972Z,100756.44
2019-06-07T22:23:06.537Z,100756.38
2019-06-07T22:25:38.416Z,100753.66
2019-06-07T22:28:10.726Z,100745.43
2019-06-07T22:30:42.762Z,100752.33
2019-06-07T22:33:15.130Z,100753.88
2019-06-07T22:35:47.110Z,100754.72
2019-06-07T22:38:19.180Z,100755.67
2019-06-07T22:40:51.560Z,100753.81
2019-06-07T22:43:24.138Z,100758.38
2019-06-07T22:45:55.994Z,100753.69
2019-06-07T22:48:28.265Z,100749.71
2019-06-07T22:51:02.282Z,100746.38
2019-06-07T22:53:36.300Z,100752.77
2019-06-07T22:56:10.104Z,100748.92
2019-06-07T22:58:41.873Z,100748.02
2019-06-07T23:01:14.564Z,100749.76
2019-06-07T23:03:47.444Z,100746.42
2019-06-07T23:06:19.515Z,100745.75
2019-06-07T23:08:51.894Z,100745.42
2019-06-07T23:11:23.873Z,100748.69
2019-06-07T23:13:56.030Z,100749.88
2019-06-07T23:16:28.105Z,100745.52
2019-06-07T23:19:00.080Z,100749.32
2019-06-07T23:21:32.140Z,100750.75
2019-06-07T23:24:04.303Z,100748.17
2019-06-07T23:26:36.069Z,100755.95
2019-06-07T23:29:08.132Z,100759.65
2019-06-07T23:31:40.090Z,100764.25
2019-06-07T23:34:13.010Z,100763.16
2019-06-07T23:36:44.961Z,100768.56
2019-06-07T23:39:17.224Z,100766.66
2019-06-07T23:41:49.092Z,100763.36
2019-06-07T23:44:21.485Z,100764.00
2019-06-07T23:46:53.442Z,100759.67
2019-06-07T23:49:25.818Z,100755.14
2019-06-07T23:51:58.293Z,100757.07
2019-06-07T23:54:30.457Z,100749.42
2019-06-07T23:57:02.733Z,100750.03
2019-06-07T23:59:35.107Z,100747.61
